createdAt,value
2019-03-09T00:02:26.407Z,60.00
2019-03-09T00:04:54.141Z,60.10
2019-03-09T00:07:22.068Z,60.50
2019-03-09T00:09:50.676Z,60.60
2019-03-09T00:12:18.396Z,60.70
2019-03-09T00:14:45.735Z,61.00
2019-03-09T00:17:13.493Z,60.90
2019-03-09T00:19:40.993Z,61.20
2019-03-09T00:22:08.481Z,61.40
2019-03-09T00:24:56.684Z,61.40
2019-03-09T00:27:42.254Z,61.70
2019-03-09T00:30:18.770Z,62.10
2019-03-09T00:32:46.128Z,62.30
2019-03-09T00:35:14.149Z,62.50
2019-03-09T00:37:41.811Z,63.20
2019-03-09T00:40:10.664Z,62.60
2019-03-09T00:42:38.293Z,62.80
2019-03-09T00:45:06.086Z,62.80
2019-03-09T00:47:33.581Z,63.00
2019-03-09T00:50:00.968Z,63.20
2019-03-09T00:52:28.475Z,63.20
2019-03-09T00:54:56.255Z,63.30
2019-03-09T00:57:23.657Z,63.40
2019-03-09T00:59:55.272Z,63.70
2019-03-09T01:02:23.118Z,63.70
2019-03-09T01:04:50.509Z,64.20
2019-03-09T01:07:18.146Z,64.40
2019-03-09T01:09:45.717Z,64.70
2019-03-09T01:12:13.100Z,64.90
2019-03-09T01:14:42.539Z,65.10
2019-03-09T01:17:10.227Z,65.00
2019-03-09T01:19:37.576Z,65.10
2019-03-09T01:22:06.372Z,65.10
2019-03-09T01:24:35.135Z,65.20
2019-03-09T01:27:02.530Z,65.20
2019-03-09T01:29:29.982Z,65.40
2019-03-09T01:31:57.452Z,65.40
2019-03-09T01:34:24.804Z,65.40
2019-03-09T01:36:52.295Z,65.40
2019-03-09T01:39:20.253Z,65.30
2019-03-09T01:41:48.288Z,65.20
2019-03-09T01:44:16.147Z,65.00
2019-03-09T01:46:43.839Z,65.00
2019-03-09T01:49:11.269Z,64.60
2019-03-09T01:51:38.623Z,64.70
2019-03-09T01:54:06.270Z,64.50
2019-03-09T01:56:33.652Z,64.20
2019-03-09T01:59:02.968Z,64.20
2019-03-09T02:01:30.575Z,64.20
2019-03-09T02:03:58.265Z,63.90
2019-03-09T02:06:25.778Z,63.80
2019-03-09T02:08:53.152Z,63.80
2019-03-09T02:11:21.439Z,63.50
2019-03-09T02:13:49.117Z,63.70
2019-03-09T02:16:16.595Z,63.50
2019-03-09T02:18:45.926Z,63.30
2019-03-09T02:21:13.617Z,63.20
2019-03-09T02:23:41.125Z,63.00
2019-03-09T02:26:08.494Z,62.80
2019-03-09T02:28:36.312Z,62.60
2019-03-09T02:31:03.806Z,62.70
2019-03-09T02:33:31.558Z,62.40
2019-03-09T02:35:59.492Z,62.10
2019-03-09T02:38:37.884Z,61.40
2019-03-09T02:41:07.188Z,60.70
2019-03-09T02:43:34.911Z,60.20
2019-03-09T02:46:02.517Z,60.30
2019-03-09T02:48:30.626Z,60.20
2019-03-09T02:50:58.489Z,60.40
2019-03-09T02:53:26.349Z,60.30
2019-03-09T02:55:54.505Z,60.40
2019-03-09T02:58:22.234Z,60.30
2019-03-09T03:01:00.061Z,60.30
2019-03-09T03:03:27.537Z,60.60
2019-03-09T03:05:55.042Z,60.70
2019-03-09T03:08:22.556Z,61.20
2019-03-09T03:10:49.952Z,61.70
2019-03-09T03:13:18.309Z,61.60
2019-03-09T03:15:45.803Z,61.80
2019-03-09T03:18:13.300Z,61.60
2019-03-09T03:20:41.169Z,61.70
2019-03-09T03:23:08.566Z,61.10
2019-03-09T03:25:35.926Z,61.30
2019-03-09T03:28:03.476Z,62.00
2019-03-09T03:30:31.391Z,61.90
2019-03-09T03:32:59.722Z,62.10
2019-03-09T03:35:27.050Z,62.30
2019-03-09T03:37:55.312Z,61.50
2019-03-09T03:40:23.132Z,61.50
2019-03-09T03:42:50.436Z,61.40
2019-03-09T03:45:17.864Z,61.50
2019-03-09T03:47:46.264Z,62.40
2019-03-09T03:50:15.056Z,61.70
2019-03-09T03:52:42.677Z,61.80
2019-03-09T03:55:10.580Z,61.90
2019-03-09T03:57:38.234Z,61.90
2019-03-09T04:00:06.619Z,62.10
2019-03-09T04:02:34.133Z,62.50
2019-03-09T04:05:01.614Z,62.60
2019-03-09T04:07:29.110Z,62.10
2019-03-09T04:09:57.392Z,62.90
2019-03-09T04:12:24.957Z,63.10
2019-03-09T04:14:52.715Z,63.10
2019-03-09T04:17:20.259Z,63.00
2019-03-09T04:19:47.616Z,63.20
2019-03-09T04:22:14.965Z,63.50
2019-03-09T04:24:43.260Z,63.10
2019-03-09T04:27:10.743Z,63.80
2019-03-09T04:29:38.131Z,62.80
2019-03-09T04:32:05.730Z,61.70
2019-03-09T04:34:33.452Z,61.10
2019-03-09T04:37:00.904Z,60.60
2019-03-09T04:39:49.068Z,60.50
2019-03-09T04:42:16.391Z,60.50
2019-03-09T04:44:44.103Z,59.90
2019-03-09T04:47:11.973Z,60.40
2019-03-09T04:49:39.764Z,60.50
2019-03-09T04:52:07.202Z,61.00
2019-03-09T04:54:34.950Z,60.90
2019-03-09T04:57:03.558Z,60.40
2019-03-09T04:59:30.995Z,60.40
2019-03-09T05:01:58.815Z,59.90
2019-03-09T05:04:38.270Z,59.20
2019-03-09T05:07:05.636Z,59.30
2019-03-09T05:09:53.895Z,59.50
2019-03-09T05:12:21.626Z,59.60
2019-03-09T05:14:49.417Z,59.70
2019-03-09T05:17:16.879Z,59.70
2019-03-09T05:19:44.416Z,59.30
2019-03-09T05:22:11.803Z,59.50
2019-03-09T05:24:39.167Z,59.50
2019-03-09T05:27:06.567Z,60.10
2019-03-09T05:29:34.267Z,60.40
2019-03-09T05:32:01.897Z,60.80
2019-03-09T05:34:29.883Z,61.10
2019-03-09T05:36:57.574Z,61.40
2019-03-09T05:39:25.179Z,61.50
2019-03-09T05:41:52.971Z,63.70
2019-03-09T05:44:20.373Z,64.80
2019-03-09T05:46:50.144Z,64.80
2019-03-09T05:49:17.601Z,64.60
2019-03-09T05:52:22.718Z,64.20
2019-03-09T05:54:51.687Z,64.00
2019-03-09T05:57:31.357Z,63.80
2019-03-09T06:00:11.854Z,63.80
2019-03-09T06:02:39.467Z,63.50
2019-03-09T06:05:32.155Z,63.70
2019-03-09T06:07:59.914Z,63.90
2019-03-09T06:10:27.516Z,63.90
2019-03-09T06:12:54.864Z,63.70
2019-03-09T06:15:34.792Z,63.40
2019-03-09T06:18:02.145Z,63.70
2019-03-09T06:20:30.199Z,63.80
2019-03-09T06:22:59.286Z,64.00
2019-03-09T06:25:26.646Z,64.20
2019-03-09T06:27:53.988Z,64.20
2019-03-09T06:30:21.659Z,64.30
2019-03-09T06:33:14.570Z,64.70
2019-03-09T06:35:41.913Z,64.90
2019-03-09T06:38:33.391Z,65.10
2019-03-09T06:41:03.142Z,65.30
2019-03-09T06:43:30.968Z,65.50
2019-03-09T06:45:58.631Z,66.00
2019-03-09T06:48:26.058Z,66.10
2019-03-09T06:50:53.867Z,66.20
2019-03-09T06:53:21.240Z,66.60
2019-03-09T06:55:48.583Z,66.60
2019-03-09T06:58:16.334Z,66.90
2019-03-09T07:00:43.724Z,67.10
2019-03-09T07:03:11.783Z,67.30
2019-03-09T07:05:39.159Z,67.50
2019-03-09T07:08:06.869Z,67.60
2019-03-09T07:10:34.938Z,67.70
2019-03-09T07:13:02.575Z,68.00
2019-03-09T07:15:32.074Z,67.90
2019-03-09T07:18:05.146Z,68.00
2019-03-09T07:20:32.461Z,67.90
2019-03-09T07:23:00.437Z,67.60
2019-03-09T07:25:28.042Z,67.40
2019-03-09T07:28:03.377Z,67.60
2019-03-09T07:30:30.861Z,67.70
2019-03-09T07:32:58.529Z,67.60
2019-03-09T07:35:26.048Z,67.40
2019-03-09T07:37:53.747Z,67.40
2019-03-09T07:40:21.163Z,67.30
2019-03-09T07:42:48.679Z,67.30
2019-03-09T07:45:17.563Z,67.40
2019-03-09T07:47:45.002Z,67.30
2019-03-09T07:50:12.638Z,67.30
2019-03-09T07:52:40.220Z,67.30
2019-03-09T07:55:10.669Z,67.30
2019-03-09T07:57:39.171Z,67.10
2019-03-09T08:00:09.429Z,66.90
2019-03-09T08:02:36.917Z,67.10
2019-03-09T08:05:04.227Z,67.20
2019-03-09T08:07:31.939Z,67.20
2019-03-09T08:09:59.354Z,67.30
2019-03-09T08:12:27.058Z,67.10
2019-03-09T08:14:54.588Z,67.10
2019-03-09T08:17:23.009Z,66.90
2019-03-09T08:19:50.511Z,67.30
2019-03-09T08:22:18.125Z,67.10
2019-03-09T08:24:45.720Z,67.10
2019-03-09T08:27:13.163Z,67.10
2019-03-09T08:29:40.512Z,67.30
2019-03-09T08:32:09.129Z,67.30
2019-03-09T08:34:36.730Z,67.10
2019-03-09T08:37:04.352Z,67.10
2019-03-09T08:39:31.748Z,67.30
2019-03-09T08:41:59.504Z,67.20
2019-03-09T08:44:27.397Z,67.20
2019-03-09T08:46:55.042Z,67.50
2019-03-09T08:49:22.741Z,67.40
2019-03-09T08:51:50.593Z,67.40
2019-03-09T08:54:18.443Z,67.40
2019-03-09T08:56:45.781Z,67.30
2019-03-09T08:59:13.158Z,67.30
2019-03-09T09:01:40.790Z,67.40
2019-03-09T09:04:08.397Z,67.50
2019-03-09T09:06:36.110Z,67.50
2019-03-09T09:09:04.824Z,67.40
2019-03-09T09:11:34.262Z,67.50
2019-03-09T09:14:01.620Z,67.50
2019-03-09T09:16:29.037Z,67.50
2019-03-09T09:18:56.726Z,67.40
2019-03-09T09:21:24.484Z,67.40
2019-03-09T09:23:52.068Z,67.20
2019-03-09T09:26:19.910Z,67.10
2019-03-09T09:28:47.670Z,67.10
2019-03-09T09:31:15.156Z,67.00
2019-03-09T09:33:42.739Z,67.00
2019-03-09T09:36:10.518Z,67.20
2019-03-09T09:38:38.200Z,67.00
2019-03-09T09:41:05.583Z,66.70
2019-03-09T09:43:33.121Z,66.60
2019-03-09T09:46:00.477Z,66.60
2019-03-09T09:48:28.231Z,66.70
2019-03-09T09:50:57.179Z,66.60
2019-03-09T09:53:24.674Z,67.00
2019-03-09T09:55:52.196Z,66.70
2019-03-09T09:58:19.578Z,66.90
2019-03-09T10:00:47.655Z,67.30
2019-03-09T10:03:15.016Z,66.10
2019-03-09T10:05:42.742Z,66.10
2019-03-09T10:08:10.514Z,66.20
2019-03-09T10:10:38.611Z,66.40
2019-03-09T10:13:06.033Z,66.00
2019-03-09T10:15:33.610Z,65.80
2019-03-09T10:18:00.984Z,65.90
2019-03-09T10:20:29.526Z,66.10
2019-03-09T10:23:04.033Z,65.50
2019-03-09T10:25:27.360Z,65.60
2019-03-09T10:27:55.114Z,65.80
2019-03-09T10:30:23.743Z,65.50
2019-03-09T10:32:51.427Z,65.50
2019-03-09T10:35:23.845Z,65.40
2019-03-09T10:37:53.261Z,65.70
2019-03-09T10:40:20.435Z,65.30
2019-03-09T10:42:48.130Z,65.60
2019-03-09T10:45:15.706Z,65.50
2019-03-09T10:47:43.142Z,65.60
2019-03-09T10:50:11.424Z,65.60
2019-03-09T10:52:38.883Z,65.80
2019-03-09T10:55:08.289Z,65.50
2019-03-09T10:57:35.628Z,66.00
2019-03-09T11:00:05.353Z,66.10
2019-03-09T11:02:34.793Z,66.10
2019-03-09T11:05:02.271Z,66.10
2019-03-09T11:07:29.873Z,66.20
2019-03-09T11:09:57.218Z,66.50
2019-03-09T11:12:24.832Z,66.50
2019-03-09T11:14:52.178Z,66.60
2019-03-09T11:17:19.601Z,66.80
2019-03-09T11:19:47.115Z,67.10
2019-03-09T11:22:14.584Z,66.60
2019-03-09T11:24:42.302Z,66.60
2019-03-09T11:27:10.189Z,66.70
2019-03-09T11:29:37.816Z,66.50
2019-03-09T11:32:05.145Z,66.90
2019-03-09T11:34:32.969Z,67.00
2019-03-09T11:37:00.337Z,67.30
2019-03-09T11:39:29.492Z,67.20
2019-03-09T11:41:56.962Z,66.40
2019-03-09T11:44:24.815Z,66.70
2019-03-09T11:46:52.221Z,66.70
2019-03-09T11:49:19.694Z,66.90
2019-03-09T11:51:47.388Z,66.60
2019-03-09T11:54:15.145Z,66.70
2019-03-09T11:56:42.663Z,67.00
2019-03-09T11:59:10.078Z,67.50
2019-03-09T12:01:37.695Z,67.00
2019-03-09T12:04:05.383Z,67.00
2019-03-09T12:06:33.523Z,66.70
2019-03-09T12:09:01.513Z,67.10
2019-03-09T12:11:31.036Z,66.80
2019-03-09T12:13:58.495Z,66.90
2019-03-09T12:16:29.158Z,66.70
2019-03-09T12:18:58.738Z,66.90
2019-03-09T12:21:26.516Z,66.90
2019-03-09T12:23:53.961Z,66.60
2019-03-09T12:26:21.490Z,66.40
2019-03-09T12:28:48.811Z,66.40
2019-03-09T12:31:16.154Z,66.40
2019-03-09T12:33:43.923Z,66.70
2019-03-09T12:36:11.825Z,66.80
2019-03-09T12:38:39.499Z,67.00
2019-03-09T12:41:07.060Z,67.00
2019-03-09T12:43:35.148Z,67.20
2019-03-09T12:46:02.516Z,67.80
2019-03-09T12:48:30.156Z,67.70
2019-03-09T12:50:57.719Z,68.00
2019-03-09T12:53:25.041Z,68.10
2019-03-09T12:55:52.876Z,69.20
2019-03-09T12:58:20.704Z,69.60
2019-03-09T13:00:48.364Z,69.80
2019-03-09T13:03:15.704Z,69.70
2019-03-09T13:05:43.139Z,69.30
2019-03-09T13:08:11.264Z,69.00
2019-03-09T13:10:38.741Z,68.90
2019-03-09T13:13:06.559Z,68.70
2019-03-09T13:15:34.018Z,68.40
2019-03-09T13:18:01.429Z,68.40
2019-03-09T13:20:29.120Z,68.40
2019-03-09T13:22:57.033Z,68.30
2019-03-09T13:25:25.024Z,68.40
2019-03-09T13:27:52.370Z,68.90
2019-03-09T13:30:19.899Z,69.20
2019-03-09T13:32:47.796Z,69.10
2019-03-09T13:35:15.391Z,69.90
2019-03-09T13:37:42.899Z,71.60
2019-03-09T13:40:10.510Z,74.10
2019-03-09T13:42:37.874Z,76.70
2019-03-09T13:45:06.123Z,78.40
2019-03-09T13:47:33.816Z,78.70
2019-03-09T13:50:01.340Z,80.00
2019-03-09T13:52:29.080Z,81.00
2019-03-09T13:54:56.839Z,81.70
2019-03-09T13:57:24.304Z,82.90
2019-03-09T13:59:51.601Z,83.20
2019-03-09T14:02:19.308Z,83.60
2019-03-09T14:04:46.756Z,84.20
2019-03-09T14:07:14.330Z,84.40
2019-03-09T14:09:42.185Z,85.30
2019-03-09T14:12:09.723Z,85.90
2019-03-09T14:14:37.454Z,86.10
2019-03-09T14:17:05.210Z,86.40
2019-03-09T14:19:32.695Z,87.10
2019-03-09T14:22:00.085Z,87.30
2019-03-09T14:24:27.611Z,87.60
2019-03-09T14:26:55.173Z,88.30
2019-03-09T14:29:22.674Z,88.40
2019-03-09T14:31:50.072Z,88.30
2019-03-09T14:34:17.889Z,88.00
2019-03-09T14:36:45.499Z,87.60
2019-03-09T14:39:12.889Z,87.70
2019-03-09T14:41:53.150Z,87.80
2019-03-09T14:44:20.591Z,88.20
2019-03-09T14:46:47.996Z,87.50
2019-03-09T14:49:15.563Z,87.40
2019-03-09T14:51:43.451Z,87.70
2019-03-09T14:54:10.765Z,87.10
2019-03-09T14:56:38.258Z,87.10
2019-03-09T14:59:05.787Z,86.40
2019-03-09T15:01:33.310Z,86.10
2019-03-09T15:04:01.275Z,86.10
2019-03-09T15:06:28.588Z,85.80
2019-03-09T15:08:56.020Z,85.60
2019-03-09T15:11:24.073Z,86.10
2019-03-09T15:13:52.755Z,85.80
2019-03-09T15:16:20.374Z,84.00
2019-03-09T15:18:49.260Z,83.60
2019-03-09T15:21:17.106Z,83.50
2019-03-09T15:23:44.970Z,82.30
2019-03-09T15:26:12.494Z,81.90
2019-03-09T15:28:40.040Z,80.80
2019-03-09T15:31:07.786Z,78.80
2019-03-09T15:33:35.319Z,77.40
2019-03-09T15:36:02.676Z,76.10
2019-03-09T15:38:30.497Z,75.70
2019-03-09T15:40:57.976Z,75.80
2019-03-09T15:43:25.711Z,75.50
2019-03-09T15:45:53.132Z,74.20
2019-03-09T15:48:20.508Z,74.20
2019-03-09T15:50:48.084Z,72.70
2019-03-09T15:53:15.547Z,72.10
2019-03-09T15:55:43.404Z,71.90
2019-03-09T15:58:10.743Z,71.50
2019-03-09T16:00:38.441Z,71.50
2019-03-09T16:03:05.761Z,70.50
2019-03-09T16:05:33.272Z,69.60
2019-03-09T16:08:00.817Z,69.10
2019-03-09T16:10:28.529Z,70.00
2019-03-09T16:12:56.167Z,69.80
2019-03-09T16:15:23.525Z,70.40
2019-03-09T16:17:50.918Z,69.60
2019-03-09T16:20:18.384Z,69.10
2019-03-09T16:22:46.003Z,68.40
2019-03-09T16:25:14.720Z,67.90
2019-03-09T16:27:42.181Z,69.40
2019-03-09T16:30:12.938Z,69.60
2019-03-09T16:32:40.994Z,69.80
2019-03-09T16:35:08.317Z,69.20
2019-03-09T16:37:35.888Z,68.50
2019-03-09T16:40:03.851Z,69.60
2019-03-09T16:42:31.509Z,68.80
2019-03-09T16:44:58.975Z,69.20
2019-03-09T16:47:26.435Z,69.60
2019-03-09T16:49:53.821Z,68.90
2019-03-09T16:52:21.479Z,67.30
2019-03-09T16:54:48.955Z,66.80
2019-03-09T16:57:16.271Z,65.40
2019-03-09T16:59:44.461Z,66.40
2019-03-09T17:02:12.319Z,66.50
2019-03-09T17:04:40.043Z,65.30
2019-03-09T17:07:07.743Z,65.60
2019-03-09T17:09:35.215Z,65.00
2019-03-09T17:12:02.582Z,65.10
2019-03-09T17:14:30.134Z,64.80
2019-03-09T17:16:57.625Z,65.10
2019-03-09T17:19:24.987Z,64.10
2019-03-09T17:21:52.448Z,64.30
2019-03-09T17:24:19.950Z,64.20
2019-03-09T17:26:47.450Z,63.40
2019-03-09T17:29:14.904Z,63.90
2019-03-09T17:31:42.453Z,64.30
2019-03-09T17:34:10.531Z,64.70
2019-03-09T17:36:38.198Z,63.80
2019-03-09T17:39:05.717Z,63.40
2019-03-09T17:41:35.207Z,63.50
2019-03-09T17:44:02.587Z,63.90
2019-03-09T17:46:30.004Z,63.30
2019-03-09T17:48:57.897Z,63.10
2019-03-09T17:51:25.865Z,63.20
2019-03-09T17:53:53.444Z,62.80
2019-03-09T17:56:20.915Z,62.00
2019-03-09T17:58:48.636Z,62.00
2019-03-09T18:01:16.153Z,62.00
2019-03-09T18:03:43.843Z,62.40
2019-03-09T18:06:11.502Z,62.40
2019-03-09T18:08:39.153Z,62.40
2019-03-09T18:11:07.768Z,62.90
2019-03-09T18:13:35.943Z,62.50
2019-03-09T18:16:04.581Z,61.90
2019-03-09T18:18:32.040Z,62.30
2019-03-09T18:20:59.446Z,62.00
2019-03-09T18:23:26.955Z,61.60
2019-03-09T18:25:55.073Z,61.40
2019-03-09T18:28:22.560Z,61.40
2019-03-09T18:30:53.145Z,61.40
2019-03-09T18:33:20.504Z,61.60
2019-03-09T18:35:47.995Z,61.10
2019-03-09T18:38:15.396Z,60.40
2019-03-09T18:40:43.808Z,61.00
2019-03-09T18:43:11.515Z,61.60
2019-03-09T18:45:38.982Z,61.20
2019-03-09T18:48:06.687Z,61.10
2019-03-09T18:50:34.149Z,61.40
2019-03-09T18:53:01.754Z,63.60
2019-03-09T18:55:30.296Z,64.80
2019-03-09T18:57:57.758Z,65.60
2019-03-09T19:00:25.379Z,66.10
2019-03-09T19:02:52.958Z,66.50
2019-03-09T19:05:20.427Z,67.00
2019-03-09T19:07:47.809Z,67.10
2019-03-09T19:10:15.847Z,67.20
2019-03-09T19:12:43.362Z,67.60
2019-03-09T19:15:11.887Z,67.60
2019-03-09T19:17:40.384Z,67.20
2019-03-09T19:20:09.046Z,67.70
2019-03-09T19:22:36.478Z,67.80
2019-03-09T19:25:04.737Z,68.00
2019-03-09T19:27:32.591Z,68.50
2019-03-09T19:30:00.082Z,68.20
2019-03-09T19:32:27.556Z,68.50
2019-03-09T19:34:56.564Z,67.90
2019-03-09T19:37:24.038Z,67.30
2019-03-09T19:39:51.912Z,67.60
2019-03-09T19:42:19.734Z,67.90
2019-03-09T19:44:47.094Z,68.10
2019-03-09T19:47:15.192Z,67.80
2019-03-09T19:49:42.696Z,67.50
2019-03-09T19:52:10.142Z,67.30
2019-03-09T19:54:37.747Z,67.50
2019-03-09T19:57:05.387Z,67.50
2019-03-09T19:59:33.392Z,67.70
2019-03-09T20:02:02.120Z,67.90
2019-03-09T20:04:30.134Z,67.60
2019-03-09T20:06:57.926Z,68.50
2019-03-09T20:09:25.482Z,69.10
2019-03-09T20:11:52.846Z,69.50
2019-03-09T20:14:20.514Z,69.80
2019-03-09T20:16:48.059Z,70.40
2019-03-09T20:19:15.554Z,70.30
2019-03-09T20:21:43.067Z,70.10
2019-03-09T20:24:10.543Z,70.50
2019-03-09T20:26:38.010Z,70.80
2019-03-09T20:29:05.640Z,71.20
2019-03-09T20:31:33.778Z,71.60
2019-03-09T20:34:01.208Z,71.90
2019-03-09T20:36:28.679Z,72.30
2019-03-09T20:38:56.355Z,72.70
2019-03-09T20:41:23.752Z,73.00
2019-03-09T20:43:51.088Z,73.30
2019-03-09T20:46:18.582Z,73.50
2019-03-09T20:48:46.514Z,73.40
2019-03-09T20:51:14.272Z,73.70
2019-03-09T20:53:41.802Z,73.40
2019-03-09T20:56:09.615Z,73.60
2019-03-09T20:58:37.055Z,73.80
2019-03-09T21:01:04.639Z,73.90
2019-03-09T21:03:32.484Z,73.90
2019-03-09T21:06:00.556Z,74.20
2019-03-09T21:08:28.189Z,74.30
2019-03-09T21:11:03.912Z,74.40
2019-03-09T21:13:26.108Z,74.80
2019-03-09T21:15:53.568Z,74.90
2019-03-09T21:18:21.308Z,75.00
2019-03-09T21:20:48.783Z,75.20
2019-03-09T21:23:16.286Z,75.10
2019-03-09T21:25:44.168Z,75.30
2019-03-09T21:28:11.977Z,75.60
2019-03-09T21:30:39.532Z,75.60
2019-03-09T21:33:07.163Z,76.10
2019-03-09T21:35:34.661Z,76.00
2019-03-09T21:38:02.311Z,76.10
2019-03-09T21:40:31.219Z,76.00
2019-03-09T21:42:58.726Z,76.10
2019-03-09T21:45:26.196Z,75.90
2019-03-09T21:47:53.817Z,76.20
2019-03-09T21:50:21.887Z,76.40
2019-03-09T21:52:49.911Z,76.90
2019-03-09T21:55:39.006Z,77.10
2019-03-09T21:58:06.661Z,76.90
2019-03-09T22:00:34.404Z,77.00
2019-03-09T22:03:02.210Z,77.10
2019-03-09T22:05:30.712Z,77.10
2019-03-09T22:07:58.194Z,77.20
2019-03-09T22:10:25.973Z,77.30
2019-03-09T22:12:53.316Z,77.40
2019-03-09T22:15:20.659Z,77.40
2019-03-09T22:17:47.994Z,77.50
2019-03-09T22:20:16.928Z,77.80
2019-03-09T22:22:44.573Z,77.90
2019-03-09T22:25:12.257Z,77.90
2019-03-09T22:27:39.868Z,78.20
2019-03-09T22:30:08.989Z,78.90
2019-03-09T22:32:36.334Z,78.40
2019-03-09T22:35:03.893Z,78.30
2019-03-09T22:37:31.272Z,78.40
2019-03-09T22:39:58.782Z,78.40
2019-03-09T22:42:26.499Z,78.50
2019-03-09T22:44:54.160Z,78.40
2019-03-09T22:47:21.825Z,78.70
2019-03-09T22:49:49.486Z,79.20
2019-03-09T22:52:17.453Z,79.20
2019-03-09T22:54:45.345Z,79.40
2019-03-09T22:57:13.384Z,79.70
2019-03-09T22:59:41.053Z,79.80
2019-03-09T23:02:08.765Z,79.80
2019-03-09T23:04:36.343Z,79.90
2019-03-09T23:07:03.727Z,80.10
2019-03-09T23:09:31.043Z,80.10
2019-03-09T23:11:58.685Z,80.00
2019-03-09T23:14:26.511Z,80.10
2019-03-09T23:16:53.876Z,80.00
2019-03-09T23:19:22.768Z,80.10
2019-03-09T23:21:50.158Z,80.20
2019-03-09T23:24:17.729Z,80.30
2019-03-09T23:26:45.216Z,80.40
2019-03-09T23:29:12.988Z,80.20
2019-03-09T23:31:40.907Z,80.40
2019-03-09T23:34:09.540Z,80.70
2019-03-09T23:36:37.209Z,80.70
2019-03-09T23:39:06.365Z,80.60
2019-03-09T23:41:35.374Z,80.70
2019-03-09T23:44:02.956Z,80.80
2019-03-09T23:46:30.446Z,81.20
2019-03-09T23:48:58.177Z,81.10
2019-03-09T23:51:26.963Z,81.20
2019-03-09T23:53:54.442Z,81.20
2019-03-09T23:56:21.746Z,81.30
2019-03-09T23:58:49.543Z,81.40
